createdAt,value
2018-11-14T00:00:28.435Z,42.05
2018-11-14T00:02:58.011Z,40.80
2018-11-14T00:05:26.850Z,39.20
2018-11-14T00:07:55.777Z,40.08
2018-11-14T00:10:24.642Z,39.27
2018-11-14T00:12:53.508Z,40.70
2018-11-14T00:15:23.590Z,37.05
2018-11-14T00:17:52.880Z,40.80
2018-11-14T00:20:21.738Z,41.08
2018-11-14T00:22:51.365Z,38.33
2018-11-14T00:25:20.268Z,40.23
2018-11-14T00:27:49.174Z,37.67
2018-11-14T00:30:19.877Z,35.25
2018-11-14T00:32:48.740Z,38.73
2018-11-14T00:35:17.598Z,37.85
2018-11-14T00:37:46.997Z,35.58
2018-11-14T00:40:16.667Z,33.38
2018-11-14T00:42:46.228Z,36.55
2018-11-14T00:45:17.317Z,34.13
2018-11-14T00:47:47.153Z,35.75
2018-11-14T00:50:16.838Z,34.70
2018-11-14T00:52:46.184Z,34.67
2018-11-14T00:55:17.116Z,36.38
2018-11-14T00:57:47.016Z,34.58
2018-11-14T01:00:18.758Z,34.20
2018-11-14T01:02:47.704Z,34.67
2018-11-14T01:05:17.183Z,34.92
2018-11-14T01:07:46.115Z,33.45
2018-11-14T01:10:19.467Z,33.38
2018-11-14T01:12:48.839Z,34.95
2018-11-14T01:15:18.975Z,34.80
2018-11-14T01:17:47.799Z,34.20
2018-11-14T01:20:20.737Z,33.35
2018-11-14T01:22:49.859Z,32.83
2018-11-14T01:25:19.289Z,33.67
2018-11-14T01:27:48.180Z,31.35
2018-11-14T01:30:20.661Z,32.48
2018-11-14T01:32:49.980Z,32.90
2018-11-14T01:35:19.231Z,34.10
2018-11-14T01:37:48.255Z,30.65
2018-11-14T01:40:19.841Z,31.45
2018-11-14T01:42:49.819Z,31.02
2018-11-14T01:45:18.724Z,31.60
2018-11-14T01:47:47.586Z,31.15
2018-11-14T01:50:16.464Z,32.53
2018-11-14T01:52:45.336Z,31.55
2018-11-14T01:55:16.153Z,33.95
2018-11-14T01:57:45.006Z,33.63
2018-11-14T02:00:15.590Z,31.95
2018-11-14T02:02:44.554Z,32.78
2018-11-14T02:05:13.437Z,32.63
2018-11-14T02:07:42.345Z,30.68
2018-11-14T02:10:13.838Z,32.93
2018-11-14T02:12:43.234Z,31.20
2018-11-14T02:15:15.135Z,30.45
2018-11-14T02:17:44.111Z,30.55
2018-11-14T02:20:13.396Z,32.88
2018-11-14T02:22:42.973Z,32.05
2018-11-14T02:25:18.781Z,31.75
2018-11-14T02:27:47.637Z,30.95
2018-11-14T02:30:18.729Z,31.15
2018-11-14T02:32:47.588Z,32.30
2018-11-14T02:35:16.569Z,34.30
2018-11-14T02:37:45.880Z,34.92
2018-11-14T02:40:15.979Z,34.85
2018-11-14T02:42:44.844Z,35.52
2018-11-14T02:45:14.061Z,34.25
2018-11-14T02:47:42.954Z,31.27
2018-11-14T02:50:13.590Z,32.70
2018-11-14T02:52:42.542Z,32.03
2018-11-14T02:55:12.792Z,31.05
2018-11-14T02:57:42.232Z,31.27
2018-11-14T03:00:15.456Z,30.65
2018-11-14T03:02:44.707Z,32.88
2018-11-14T03:05:13.639Z,30.10
2018-11-14T03:07:42.478Z,29.72
2018-11-14T03:10:14.345Z,30.85
2018-11-14T03:12:43.213Z,32.88
2018-11-14T03:15:14.504Z,31.85
2018-11-14T03:17:43.350Z,32.58
2018-11-14T03:20:14.644Z,31.27
2018-11-14T03:22:43.494Z,30.25
2018-11-14T03:25:13.542Z,30.72
2018-11-14T03:27:42.511Z,31.35
2018-11-14T03:30:13.624Z,30.88
2018-11-14T03:32:42.871Z,29.75
2018-11-14T03:35:12.678Z,31.35
2018-11-14T03:37:41.516Z,32.95
2018-11-14T03:40:12.661Z,32.93
2018-11-14T03:42:41.573Z,32.30
2018-11-14T03:45:11.836Z,31.37
2018-11-14T03:47:41.267Z,32.20
2018-11-14T03:50:10.863Z,34.20
2018-11-14T03:52:39.774Z,34.60
2018-11-14T03:55:14.911Z,34.85
2018-11-14T03:57:43.800Z,32.42
2018-11-14T04:00:14.915Z,32.78
2018-11-14T04:02:44.946Z,33.05
2018-11-14T04:05:13.830Z,32.63
2018-11-14T04:07:43.060Z,32.95
2018-11-14T04:10:12.961Z,33.23
2018-11-14T04:12:41.979Z,35.10
2018-11-14T04:15:14.262Z,33.98
2018-11-14T04:17:43.128Z,38.88
2018-11-14T04:20:14.801Z,59.20
2018-11-14T04:22:43.726Z,48.90
2018-11-14T04:25:17.931Z,53.13
2018-11-14T04:27:50.262Z,42.38
2018-11-14T04:30:23.675Z,40.05
2018-11-14T04:32:52.595Z,39.08
2018-11-14T04:35:22.005Z,73.90
2018-11-14T04:37:50.923Z,106.75
2018-11-14T04:40:21.855Z,36.53
2018-11-14T04:42:50.734Z,36.23
2018-11-14T04:45:21.056Z,37.38
2018-11-14T04:47:49.976Z,34.78
2018-11-14T04:50:20.544Z,37.55
2018-11-14T04:52:50.091Z,36.85
2018-11-14T04:55:20.250Z,38.33
2018-11-14T04:57:49.623Z,36.85
2018-11-14T05:00:19.637Z,41.23
2018-11-14T05:02:49.328Z,39.13
2018-11-14T05:05:19.361Z,39.78
2018-11-14T05:07:48.421Z,41.15
2018-11-14T05:10:19.725Z,40.20
2018-11-14T05:12:49.054Z,44.33
2018-11-14T05:15:19.161Z,45.98
2018-11-14T05:17:48.492Z,38.23
2018-11-14T05:20:18.377Z,41.83
2018-11-14T05:22:47.544Z,37.58
2018-11-14T05:25:16.548Z,37.35
2018-11-14T05:27:45.436Z,35.65
2018-11-14T05:30:22.817Z,39.05
2018-11-14T05:32:52.240Z,37.85
2018-11-14T05:35:21.152Z,39.63
2018-11-14T05:37:50.308Z,38.28
2018-11-14T05:40:20.435Z,40.48
2018-11-14T05:42:49.836Z,42.65
2018-11-14T05:45:20.276Z,42.05
2018-11-14T05:47:49.157Z,48.58
2018-11-14T05:50:19.774Z,45.58
2018-11-14T05:52:48.637Z,41.00
2018-11-14T05:55:17.881Z,41.23
2018-11-14T05:57:46.852Z,43.00
2018-11-14T06:00:30.132Z,42.17
2018-11-14T06:02:59.811Z,39.98
2018-11-14T06:05:28.666Z,40.17
2018-11-14T06:07:57.512Z,40.08
2018-11-14T06:10:26.632Z,39.35
2018-11-14T06:12:55.474Z,39.83
2018-11-14T06:15:24.384Z,42.17
2018-11-14T06:17:54.348Z,42.90
2018-11-14T06:20:23.390Z,42.73
2018-11-14T06:22:53.064Z,41.08
2018-11-14T06:25:31.869Z,43.45
2018-11-14T06:28:01.866Z,41.28
2018-11-14T06:30:31.105Z,45.43
2018-11-14T06:33:00.620Z,46.95
2018-11-14T06:35:29.513Z,47.70
2018-11-14T06:37:58.448Z,49.27
2018-11-14T06:40:27.431Z,45.63
2018-11-14T06:42:56.242Z,44.73
2018-11-14T06:45:26.355Z,50.55
2018-11-14T06:47:56.526Z,50.67
2018-11-14T06:50:25.390Z,56.50
2018-11-14T06:52:55.756Z,58.40
2018-11-14T06:55:24.636Z,55.25
2018-11-14T06:57:53.526Z,66.87
2018-11-14T07:00:25.465Z,59.50
2018-11-14T07:02:54.955Z,58.30
2018-11-14T07:05:24.002Z,55.73
2018-11-14T07:07:52.845Z,55.30
2018-11-14T07:10:24.022Z,55.78
2018-11-14T07:12:52.935Z,54.45
2018-11-14T07:15:23.131Z,55.23
2018-11-14T07:17:52.998Z,51.58
2018-11-14T07:20:25.694Z,52.60
2018-11-14T07:22:54.573Z,57.00
2018-11-14T07:25:23.458Z,54.80
2018-11-14T07:27:52.388Z,51.28
2018-11-14T07:30:23.322Z,46.58
2018-11-14T07:32:57.393Z,46.95
2018-11-14T07:35:26.274Z,44.30
2018-11-14T07:39:00.116Z,47.98
2018-11-14T07:41:32.440Z,48.70
2018-11-14T07:44:01.388Z,49.35
2018-11-14T07:46:31.431Z,66.30
2018-11-14T07:49:00.411Z,74.60
2018-11-14T07:51:29.467Z,79.92
2018-11-14T07:53:58.582Z,85.30
2018-11-14T07:56:27.569Z,81.87
2018-11-14T07:58:56.469Z,111.40
2018-11-14T08:01:25.425Z,97.85
2018-11-14T08:03:54.321Z,85.10
2018-11-14T08:06:23.202Z,105.12
2018-11-14T08:08:52.111Z,107.85
2018-11-14T08:11:21.050Z,86.12
2018-11-14T08:13:50.190Z,79.42
2018-11-14T08:16:19.055Z,75.12
2018-11-14T08:18:48.057Z,86.12
2018-11-14T08:21:16.887Z,83.12
2018-11-14T08:23:45.758Z,74.32
2018-11-14T08:26:14.648Z,71.75
2018-11-14T08:28:43.491Z,76.53
2018-11-14T08:31:12.342Z,68.12
2018-11-14T08:33:41.191Z,66.20
2018-11-14T08:36:10.075Z,65.15
2018-11-14T08:38:38.951Z,66.10
2018-11-14T08:41:07.885Z,69.75
2018-11-14T08:43:36.779Z,61.70
2018-11-14T08:46:06.318Z,63.53
2018-11-14T08:48:35.248Z,56.97
2018-11-14T08:51:04.202Z,54.47
2018-11-14T08:53:33.082Z,55.80
2018-11-14T08:56:02.083Z,56.43
2018-11-14T08:58:30.917Z,51.27
2018-11-14T09:00:59.865Z,43.73
2018-11-14T09:03:28.841Z,46.53
2018-11-14T09:05:57.715Z,38.53
2018-11-14T09:08:26.605Z,37.23
2018-11-14T09:10:55.567Z,36.28
2018-11-14T09:13:24.421Z,36.63
2018-11-14T09:15:53.346Z,37.75
2018-11-14T09:18:22.201Z,43.90
2018-11-14T09:20:51.094Z,42.08
2018-11-14T09:23:19.949Z,40.15
2018-11-14T09:25:48.806Z,35.10
2018-11-14T09:28:18.584Z,32.63
2018-11-14T09:30:47.487Z,31.15
2018-11-14T09:33:16.426Z,37.42
2018-11-14T09:35:45.197Z,34.55
2018-11-14T09:38:14.061Z,36.17
2018-11-14T09:40:42.964Z,33.53
2018-11-14T09:43:11.855Z,31.83
2018-11-14T09:45:40.681Z,30.17
2018-11-14T09:48:09.557Z,32.73
2018-11-14T09:50:38.422Z,33.97
2018-11-14T09:53:07.359Z,34.83
2018-11-14T09:55:36.293Z,32.60
2018-11-14T09:58:05.185Z,34.08
2018-11-14T10:00:35.007Z,32.05
2018-11-14T10:03:09.688Z,33.67
2018-11-14T10:05:38.671Z,33.10
2018-11-14T10:08:07.525Z,35.50
2018-11-14T10:10:36.360Z,34.92
2018-11-14T10:13:05.714Z,34.90
2018-11-14T10:15:34.620Z,32.98
2018-11-14T10:18:03.474Z,34.83
2018-11-14T10:20:32.317Z,33.42
2018-11-14T10:23:01.237Z,33.73
2018-11-14T10:25:30.091Z,33.20
2018-11-14T10:27:59.005Z,35.55
2018-11-14T10:30:28.538Z,33.48
2018-11-14T10:32:57.387Z,33.90
2018-11-14T10:35:26.321Z,32.78
2018-11-14T10:37:55.203Z,32.70
2018-11-14T10:40:25.373Z,38.03
2018-11-14T10:42:54.338Z,35.03
2018-11-14T10:45:24.284Z,35.35
2018-11-14T10:47:53.203Z,35.10
2018-11-14T10:50:23.402Z,38.35
2018-11-14T10:52:52.319Z,36.70
2018-11-14T10:55:21.702Z,36.08
2018-11-14T10:57:50.803Z,38.02
2018-11-14T11:00:28.836Z,38.38
2018-11-14T11:03:03.490Z,40.23
2018-11-14T11:05:44.369Z,40.43
2018-11-14T11:08:19.543Z,39.92
2018-11-14T11:10:53.664Z,40.08
2018-11-14T11:13:27.550Z,40.83
2018-11-14T11:16:01.418Z,43.55
2018-11-14T11:18:31.836Z,43.52
2018-11-14T11:21:00.829Z,43.95
2018-11-14T11:23:29.797Z,44.67
2018-11-14T11:25:58.588Z,44.13
2018-11-14T11:28:27.460Z,42.27
2018-11-14T11:30:56.366Z,45.08
2018-11-14T11:33:25.217Z,45.45
2018-11-14T11:35:54.078Z,46.80
2018-11-14T11:38:23.006Z,46.37
2018-11-14T11:40:51.815Z,46.02
2018-11-14T11:43:20.703Z,46.13
2018-11-14T11:45:49.642Z,45.60
2018-11-14T11:48:18.529Z,44.05
2018-11-14T11:50:47.413Z,44.42
2018-11-14T11:53:16.318Z,44.42
2018-11-14T11:55:45.164Z,44.98
2018-11-14T11:58:14.041Z,46.55
2018-11-14T12:00:43.044Z,47.08
2018-11-14T12:03:11.800Z,44.63
2018-11-14T12:05:40.649Z,49.20
2018-11-14T12:08:09.548Z,50.00
2018-11-14T12:10:38.446Z,47.55
2018-11-14T12:13:07.315Z,49.65
2018-11-14T12:15:36.243Z,51.48
2018-11-14T12:18:05.169Z,52.80
2018-11-14T12:20:34.068Z,53.63
2018-11-14T12:23:02.912Z,55.23
2018-11-14T12:25:31.841Z,53.20
2018-11-14T12:28:00.725Z,55.88
2018-11-14T12:30:29.711Z,55.08
2018-11-14T12:32:58.559Z,52.43
2018-11-14T12:35:27.415Z,52.03
2018-11-14T12:37:56.314Z,52.38
2018-11-14T12:40:25.177Z,54.08
2018-11-14T12:42:54.068Z,57.27
2018-11-14T12:45:22.951Z,56.23
2018-11-14T12:47:51.804Z,54.55
2018-11-14T12:50:20.665Z,57.38
2018-11-14T12:52:49.670Z,51.37
2018-11-14T12:55:19.197Z,55.00
2018-11-14T12:57:48.075Z,55.88
2018-11-14T13:00:18.411Z,59.83
2018-11-14T13:02:47.283Z,56.40
2018-11-14T13:05:16.534Z,59.75
2018-11-14T13:07:45.997Z,54.05
2018-11-14T13:10:17.028Z,55.48
2018-11-14T13:12:46.764Z,56.23
2018-11-14T13:15:16.780Z,55.23
2018-11-14T13:17:45.697Z,52.88
2018-11-14T13:20:17.013Z,56.42
2018-11-14T13:22:46.101Z,55.03
2018-11-14T13:25:15.721Z,55.90
2018-11-14T13:27:45.999Z,54.90
2018-11-14T13:30:16.516Z,51.48
2018-11-14T13:32:46.152Z,53.42
2018-11-14T13:35:16.229Z,55.92
2018-11-14T13:37:46.093Z,56.50
2018-11-14T13:40:14.964Z,55.63
2018-11-14T13:42:44.116Z,60.08
2018-11-14T13:45:14.371Z,58.87
2018-11-14T13:47:43.629Z,55.95
2018-11-14T13:50:16.611Z,54.75
2018-11-14T13:52:45.427Z,57.65
2018-11-14T13:55:15.716Z,57.20
2018-11-14T13:57:45.833Z,54.63
2018-11-14T14:00:16.918Z,59.38
2018-11-14T14:02:45.826Z,55.55
2018-11-14T14:05:17.814Z,54.95
2018-11-14T14:07:47.037Z,56.25
2018-11-14T14:10:16.649Z,54.55
2018-11-14T14:12:47.594Z,56.35
2018-11-14T14:15:18.901Z,56.50
2018-11-14T14:17:48.584Z,54.03
2018-11-14T14:20:18.126Z,57.95
2018-11-14T14:22:46.994Z,56.25
2018-11-14T14:25:17.141Z,54.93
2018-11-14T14:27:45.988Z,55.65
2018-11-14T14:30:16.202Z,55.90
2018-11-14T14:32:45.898Z,53.33
2018-11-14T14:35:15.736Z,51.08
2018-11-14T14:37:44.657Z,49.88
2018-11-14T14:40:15.512Z,50.48
2018-11-14T14:42:44.725Z,50.30
2018-11-14T14:45:16.282Z,50.28
2018-11-14T14:47:45.185Z,47.53
2018-11-14T14:50:17.234Z,47.30
2018-11-14T14:52:49.505Z,47.40
2018-11-14T14:55:21.760Z,43.80
2018-11-14T14:57:54.858Z,42.45
2018-11-14T15:00:29.486Z,42.45
2018-11-14T15:02:58.368Z,44.23
2018-11-14T15:05:30.026Z,43.50
2018-11-14T15:08:02.208Z,42.62
2018-11-14T15:10:35.434Z,44.45
2018-11-14T15:13:05.445Z,43.40
2018-11-14T15:15:35.495Z,42.43
2018-11-14T15:18:05.242Z,43.52
2018-11-14T15:20:45.062Z,42.15
2018-11-14T15:23:15.041Z,42.23
2018-11-14T15:25:43.901Z,45.35
2018-11-14T15:28:12.765Z,43.75
2018-11-14T15:30:41.653Z,45.15
2018-11-14T15:33:10.523Z,43.30
2018-11-14T15:35:39.422Z,42.38
2018-11-14T15:38:08.430Z,41.85
2018-11-14T15:40:37.301Z,41.63
2018-11-14T15:43:06.390Z,39.77
2018-11-14T15:45:35.249Z,42.08
2018-11-14T15:48:04.157Z,40.67
2018-11-14T15:50:33.037Z,40.37
2018-11-14T15:53:01.886Z,40.00
2018-11-14T15:55:30.850Z,40.58
2018-11-14T15:57:59.824Z,38.63
2018-11-14T16:00:30.080Z,37.58
2018-11-14T16:02:58.972Z,39.00
2018-11-14T16:05:28.848Z,38.40
2018-11-14T16:07:58.944Z,37.33
2018-11-14T16:10:28.796Z,37.45
2018-11-14T16:12:57.710Z,38.25
2018-11-14T16:15:29.935Z,35.17
2018-11-14T16:17:58.921Z,35.78
2018-11-14T16:20:27.951Z,33.08
2018-11-14T16:22:56.845Z,31.37
2018-11-14T16:25:27.584Z,34.33
2018-11-14T16:27:57.823Z,32.93
2018-11-14T16:30:34.489Z,32.70
2018-11-14T16:33:04.642Z,30.27
2018-11-14T16:35:33.632Z,30.72
2018-11-14T16:38:02.688Z,30.32
2018-11-14T16:40:32.845Z,30.15
2018-11-14T16:43:03.219Z,29.23
2018-11-14T16:45:33.181Z,30.17
2018-11-14T16:48:02.188Z,29.00
2018-11-14T16:50:31.137Z,27.62
2018-11-14T16:53:00.873Z,28.47
2018-11-14T16:55:31.497Z,28.45
2018-11-14T16:58:00.985Z,29.12
2018-11-14T17:00:35.248Z,27.93
2018-11-14T17:03:04.241Z,27.55
2018-11-14T17:05:33.559Z,26.95
2018-11-14T17:08:03.532Z,27.10
2018-11-14T17:10:32.397Z,25.65
2018-11-14T17:13:02.133Z,25.45
2018-11-14T17:15:31.058Z,25.02
2018-11-14T17:17:59.955Z,27.27
2018-11-14T17:20:28.870Z,26.87
2018-11-14T17:22:57.931Z,25.00
2018-11-14T17:25:26.873Z,26.15
2018-11-14T17:27:55.701Z,23.87
2018-11-14T17:30:25.733Z,25.92
2018-11-14T17:32:55.027Z,23.73
2018-11-14T17:35:23.887Z,24.47
2018-11-14T17:37:52.781Z,24.57
2018-11-14T17:40:23.670Z,23.65
2018-11-14T17:42:53.255Z,26.17
2018-11-14T17:45:24.597Z,23.18
2018-11-14T17:47:53.949Z,23.77
2018-11-14T17:50:25.437Z,24.20
2018-11-14T17:52:54.944Z,23.90
2018-11-14T17:55:24.553Z,24.13
2018-11-14T17:57:53.411Z,24.30
2018-11-14T18:00:24.329Z,25.20
2018-11-14T18:02:53.305Z,23.63
2018-11-14T18:05:23.496Z,22.73
2018-11-14T18:07:53.142Z,22.37
2018-11-14T18:10:23.321Z,22.37
2018-11-14T18:12:53.164Z,22.83
2018-11-14T18:15:22.126Z,21.90
2018-11-14T18:17:52.151Z,22.90
2018-11-14T18:20:22.390Z,22.50
2018-11-14T18:22:52.312Z,23.23
2018-11-14T18:25:21.172Z,22.13
2018-11-14T18:27:50.049Z,22.87
2018-11-14T18:30:21.209Z,23.73
2018-11-14T18:32:50.454Z,22.67
2018-11-14T18:35:20.145Z,23.55
2018-11-14T18:37:49.905Z,22.50
2018-11-14T18:40:21.007Z,21.60
2018-11-14T18:42:49.969Z,21.87
2018-11-14T18:45:22.213Z,22.87
2018-11-14T18:47:51.225Z,21.67
2018-11-14T18:50:20.760Z,20.97
2018-11-14T18:52:50.073Z,22.27
2018-11-14T18:55:20.210Z,21.80
2018-11-14T18:57:49.421Z,20.37
2018-11-14T19:00:20.222Z,21.53
2018-11-14T19:02:49.193Z,20.60
2018-11-14T19:05:18.739Z,22.27
2018-11-14T19:07:47.714Z,22.47
2018-11-14T19:10:19.860Z,22.53
2018-11-14T19:12:49.644Z,32.00
2018-11-14T19:15:20.230Z,23.30
2018-11-14T19:17:49.164Z,24.30
2018-11-14T19:20:19.570Z,25.20
2018-11-14T19:22:48.577Z,24.73
2018-11-14T19:25:19.647Z,23.37
2018-11-14T19:27:48.944Z,26.63
2018-11-14T19:30:20.060Z,22.90
2018-11-14T19:32:50.315Z,23.73
2018-11-14T19:35:19.290Z,24.27
2018-11-14T19:37:49.205Z,25.43
2018-11-14T19:40:26.770Z,24.77
2018-11-14T19:42:57.289Z,24.65
2018-11-14T19:45:28.598Z,23.95
2018-11-14T19:47:57.529Z,22.80
2018-11-14T19:50:26.765Z,24.30
2018-11-14T19:52:55.739Z,25.90
2018-11-14T19:55:25.752Z,25.60
2018-11-14T19:57:55.759Z,24.80
2018-11-14T20:00:27.293Z,26.35
2018-11-14T20:02:56.129Z,27.65
2018-11-14T20:05:25.271Z,27.48
2018-11-14T20:07:54.306Z,27.48
2018-11-14T20:10:25.364Z,26.80
2018-11-14T20:12:54.685Z,25.83
2018-11-14T20:15:25.101Z,26.55
2018-11-14T20:17:54.057Z,26.80
2018-11-14T20:20:25.376Z,25.03
2018-11-14T20:22:54.210Z,25.47
2018-11-14T20:25:23.093Z,23.67
2018-11-14T20:27:51.956Z,25.57
2018-11-14T20:30:25.311Z,24.47
2018-11-14T20:32:55.181Z,24.33
2018-11-14T20:35:24.898Z,24.23
2018-11-14T20:37:53.806Z,25.50
2018-11-14T20:40:23.272Z,25.60
2018-11-14T20:42:52.911Z,25.30
2018-11-14T20:45:23.441Z,24.50
2018-11-14T20:47:52.318Z,26.37
2018-11-14T20:50:22.477Z,23.10
2018-11-14T20:52:52.740Z,25.07
2018-11-14T20:55:21.566Z,24.70
2018-11-14T20:57:50.438Z,27.27
2018-11-14T21:00:22.643Z,27.30
2018-11-14T21:02:51.791Z,26.33
2018-11-14T21:05:20.729Z,24.87
2018-11-14T21:07:49.700Z,27.00
2018-11-14T21:10:20.714Z,27.23
2018-11-14T21:12:50.508Z,25.87
2018-11-14T21:15:20.926Z,26.17
2018-11-14T21:17:50.574Z,25.17
2018-11-14T21:20:19.493Z,25.47
2018-11-14T21:22:48.394Z,27.00
2018-11-14T21:25:18.614Z,24.87
2018-11-14T21:27:48.193Z,26.97
2018-11-14T21:30:20.434Z,27.27
2018-11-14T21:32:49.327Z,25.93
2018-11-14T21:35:20.612Z,25.27
2018-11-14T21:37:51.132Z,27.35
2018-11-14T21:40:20.033Z,27.47
2018-11-14T21:42:48.975Z,28.23
2018-11-14T21:45:19.392Z,28.77
2018-11-14T21:47:53.256Z,28.10
2018-11-14T21:50:23.190Z,27.85
2018-11-14T21:52:52.149Z,28.42
2018-11-14T21:55:21.038Z,26.52
2018-11-14T21:57:50.268Z,29.20
2018-11-14T22:00:25.570Z,27.82
2018-11-14T22:02:55.821Z,26.77
2018-11-14T22:05:24.750Z,28.40
2018-11-14T22:07:53.632Z,28.00
2018-11-14T22:10:23.558Z,27.73
2018-11-14T22:12:52.921Z,29.10
2018-11-14T22:15:24.022Z,29.12
2018-11-14T22:17:53.056Z,27.70
2018-11-14T22:20:23.242Z,28.60
2018-11-14T22:22:52.101Z,28.30
2018-11-14T22:25:22.262Z,29.73
2018-11-14T22:27:51.410Z,30.65
2018-11-14T22:30:25.572Z,28.17
2018-11-14T22:32:54.478Z,30.55
2018-11-14T22:35:24.775Z,28.17
2018-11-14T22:37:53.725Z,30.35
2018-11-14T22:40:24.742Z,31.33
2018-11-14T22:42:53.634Z,31.80
2018-11-14T22:45:23.943Z,32.08
2018-11-14T22:47:52.944Z,29.60
2018-11-14T22:50:22.853Z,30.77
2018-11-14T22:52:52.056Z,29.20
2018-11-14T22:55:22.082Z,31.23
2018-11-14T22:57:51.641Z,30.23
2018-11-14T23:00:31.877Z,33.55
2018-11-14T23:03:02.189Z,30.48
2018-11-14T23:05:31.081Z,29.87
2018-11-14T23:08:00.385Z,30.20
2018-11-14T23:10:29.332Z,29.90
2018-11-14T23:12:58.196Z,30.25
2018-11-14T23:15:27.221Z,29.67
2018-11-14T23:17:56.107Z,33.18
2018-11-14T23:20:25.019Z,30.90
2018-11-14T23:22:54.491Z,32.08
2018-11-14T23:25:23.726Z,31.25
2018-11-14T23:27:53.752Z,33.55
2018-11-14T23:30:23.750Z,33.88
2018-11-14T23:32:53.583Z,33.83
2018-11-14T23:35:27.158Z,33.83
2018-11-14T23:37:58.209Z,32.88
2018-11-14T23:40:27.401Z,30.12
2018-11-14T23:42:56.297Z,32.42
2018-11-14T23:45:25.914Z,32.13
2018-11-14T23:47:54.834Z,32.10
2018-11-14T23:50:25.866Z,31.82
2018-11-14T23:52:55.766Z,29.70
2018-11-14T23:55:25.525Z,32.70
2018-11-14T23:57:54.389Z,29.40
